createdAt,value
2017-07-15T00:00:46.350Z,45.00
2017-07-15T00:03:12.467Z,45.00
2017-07-15T00:05:38.635Z,45.00
2017-07-15T00:08:04.751Z,45.00
2017-07-15T00:10:30.875Z,44.90
2017-07-15T00:12:57.095Z,44.90
2017-07-15T00:15:23.524Z,44.90
2017-07-15T00:17:49.772Z,45.00
2017-07-15T00:20:15.892Z,44.90
2017-07-15T00:22:42.782Z,45.00
2017-07-15T00:25:08.882Z,44.90
2017-07-15T00:27:35.010Z,44.90
2017-07-15T00:30:01.286Z,44.90
2017-07-15T00:32:27.828Z,44.90
2017-07-15T00:34:53.942Z,45.00
2017-07-15T00:37:20.052Z,45.00
2017-07-15T00:39:46.207Z,45.00
2017-07-15T00:42:12.330Z,45.00
2017-07-15T00:44:38.507Z,45.00
2017-07-15T00:47:04.776Z,45.00
2017-07-15T00:49:30.911Z,45.00
2017-07-15T00:51:57.027Z,45.00
2017-07-15T00:54:23.466Z,44.90
2017-07-15T00:56:49.691Z,45.00
2017-07-15T00:59:15.808Z,45.00
2017-07-15T01:01:41.943Z,45.00
2017-07-15T01:04:08.091Z,45.00
2017-07-15T01:06:34.992Z,45.60
2017-07-15T01:09:01.106Z,45.00
2017-07-15T01:11:27.238Z,45.00
2017-07-15T01:13:53.346Z,45.00
2017-07-15T01:16:19.655Z,44.90
2017-07-15T01:18:45.762Z,45.00
2017-07-15T01:21:11.910Z,45.00
2017-07-15T01:23:38.059Z,44.90
2017-07-15T01:26:04.190Z,44.90
2017-07-15T01:28:30.343Z,44.90
2017-07-15T01:30:56.467Z,45.00
2017-07-15T01:33:22.727Z,45.60
2017-07-15T01:35:48.892Z,45.00
2017-07-15T01:38:15.007Z,45.00
2017-07-15T01:40:41.163Z,44.90
2017-07-15T01:43:07.354Z,44.90
2017-07-15T01:45:33.746Z,44.90
2017-07-15T01:47:59.867Z,44.90
2017-07-15T01:50:26.011Z,44.90
2017-07-15T01:52:52.437Z,44.80
2017-07-15T01:55:18.964Z,44.80
2017-07-15T01:57:45.100Z,44.80
2017-07-15T02:00:11.227Z,44.70
2017-07-15T02:02:37.370Z,44.80
2017-07-15T02:05:04.219Z,44.70
2017-07-15T02:07:31.095Z,44.80
2017-07-15T02:09:57.211Z,44.60
2017-07-15T02:12:23.487Z,44.70
2017-07-15T02:14:49.595Z,44.70
2017-07-15T02:17:15.703Z,44.70
2017-07-15T02:19:41.877Z,44.60
2017-07-15T02:22:08.050Z,44.50
2017-07-15T02:24:34.198Z,44.60
2017-07-15T02:27:00.313Z,44.60
2017-07-15T02:29:26.548Z,44.60
2017-07-15T02:31:52.655Z,44.60
2017-07-15T02:34:18.787Z,44.60
2017-07-15T02:36:44.987Z,44.60
2017-07-15T02:39:11.132Z,44.60
2017-07-15T02:41:37.278Z,44.60
2017-07-15T02:44:03.398Z,44.60
2017-07-15T02:46:29.759Z,44.60
2017-07-15T02:48:55.938Z,44.60
2017-07-15T02:51:22.060Z,44.60
2017-07-15T02:53:48.199Z,44.60
2017-07-15T02:56:14.311Z,44.50
2017-07-15T02:58:40.443Z,44.50
2017-07-15T03:01:06.582Z,44.50
2017-07-15T03:03:32.715Z,44.50
2017-07-15T03:05:58.985Z,44.50
2017-07-15T03:08:25.121Z,44.50
2017-07-15T03:10:52.001Z,44.50
2017-07-15T03:13:18.127Z,44.50
2017-07-15T03:15:45.446Z,44.50
2017-07-15T03:18:12.325Z,44.80
2017-07-15T03:20:38.478Z,44.40
2017-07-15T03:23:04.595Z,44.40
2017-07-15T03:25:30.743Z,44.50
2017-07-15T03:27:56.868Z,44.40
2017-07-15T03:30:23.023Z,44.40
2017-07-15T03:32:49.955Z,44.40
2017-07-15T03:35:16.123Z,44.40
2017-07-15T03:37:42.255Z,44.40
2017-07-15T03:40:08.731Z,44.40
2017-07-15T03:42:34.841Z,44.40
2017-07-15T03:45:01.005Z,44.50
2017-07-15T03:47:34.826Z,44.40
2017-07-15T03:50:00.944Z,44.40
2017-07-15T03:52:27.823Z,44.50
2017-07-15T03:54:53.935Z,44.40
2017-07-15T03:57:20.071Z,44.50
2017-07-15T03:59:46.187Z,44.50
2017-07-15T04:02:12.564Z,44.40
2017-07-15T04:04:38.683Z,44.40
2017-07-15T04:07:04.810Z,44.40
2017-07-15T04:09:30.943Z,44.00
2017-07-15T04:11:57.806Z,44.10
2017-07-15T04:14:24.722Z,44.40
2017-07-15T04:16:50.856Z,44.40
2017-07-15T04:19:17.138Z,44.50
2017-07-15T04:21:43.247Z,44.50
2017-07-15T04:24:09.447Z,44.40
2017-07-15T04:26:35.681Z,44.50
2017-07-15T04:29:01.890Z,44.50
2017-07-15T04:31:28.015Z,44.50
2017-07-15T04:33:54.119Z,44.50
2017-07-15T04:36:20.380Z,44.50
2017-07-15T04:38:46.528Z,44.50
2017-07-15T04:41:13.435Z,44.50
2017-07-15T04:43:39.567Z,44.50
2017-07-15T04:46:05.803Z,44.60
2017-07-15T04:48:31.934Z,44.60
2017-07-15T04:50:58.048Z,44.60
2017-07-15T04:53:24.390Z,44.60
2017-07-15T04:55:50.546Z,44.60
2017-07-15T04:58:16.662Z,44.60
2017-07-15T05:00:43.547Z,44.70
2017-07-15T05:03:09.678Z,44.70
2017-07-15T05:05:35.792Z,44.70
2017-07-15T05:08:01.938Z,44.70
2017-07-15T05:10:28.052Z,44.70
2017-07-15T05:12:54.168Z,44.70
2017-07-15T05:15:20.308Z,44.80
2017-07-15T05:17:46.775Z,44.80
2017-07-15T05:20:12.906Z,44.80
2017-07-15T05:22:39.015Z,44.80
2017-07-15T05:25:05.158Z,44.90
2017-07-15T05:27:31.291Z,44.90
2017-07-15T05:29:57.439Z,44.90
2017-07-15T05:32:23.554Z,44.90
2017-07-15T05:34:50.419Z,45.00
2017-07-15T05:37:16.587Z,45.00
2017-07-15T05:39:42.715Z,45.00
2017-07-15T05:42:08.847Z,45.00
2017-07-15T05:44:35.378Z,45.00
2017-07-15T05:47:01.568Z,45.10
2017-07-15T05:49:27.759Z,45.10
2017-07-15T05:51:54.711Z,45.10
2017-07-15T05:54:21.562Z,45.20
2017-07-15T05:56:47.705Z,45.20
2017-07-15T05:59:13.862Z,45.20
2017-07-15T06:01:40.444Z,45.20
2017-07-15T06:04:07.303Z,45.30
2017-07-15T06:06:33.587Z,45.30
2017-07-15T06:08:59.731Z,45.30
2017-07-15T06:11:26.579Z,45.30
2017-07-15T06:13:53.471Z,45.20
2017-07-15T06:16:19.663Z,45.20
2017-07-15T06:18:45.770Z,45.20
2017-07-15T06:21:12.713Z,45.60
2017-07-15T06:23:39.562Z,45.30
2017-07-15T06:26:06.440Z,45.40
2017-07-15T06:28:32.579Z,45.40
2017-07-15T06:30:58.719Z,45.30
2017-07-15T06:33:24.844Z,45.40
2017-07-15T06:35:50.978Z,45.40
2017-07-15T06:38:17.092Z,45.50
2017-07-15T06:40:43.291Z,45.50
2017-07-15T06:43:09.619Z,45.40
2017-07-15T06:45:36.103Z,45.50
2017-07-15T06:48:02.242Z,45.50
2017-07-15T06:50:28.363Z,45.50
2017-07-15T06:52:54.516Z,45.50
2017-07-15T06:55:20.679Z,45.50
2017-07-15T06:57:46.819Z,45.50
2017-07-15T07:00:12.980Z,45.50
2017-07-15T07:02:40.022Z,46.10
2017-07-15T07:05:06.343Z,45.50
2017-07-15T07:07:32.488Z,45.50
2017-07-15T07:09:59.375Z,45.50
2017-07-15T07:12:25.499Z,45.40
2017-07-15T07:14:51.634Z,45.50
2017-07-15T07:17:17.741Z,45.50
2017-07-15T07:19:43.882Z,45.50
2017-07-15T07:22:09.990Z,45.50
2017-07-15T07:24:36.195Z,45.50
2017-07-15T07:27:02.384Z,45.60
2017-07-15T07:29:28.747Z,45.50
2017-07-15T07:31:54.855Z,45.60
2017-07-15T07:34:20.984Z,45.60
2017-07-15T07:36:47.133Z,45.60
2017-07-15T07:39:13.289Z,45.60
2017-07-15T07:41:39.543Z,45.60
2017-07-15T07:44:05.658Z,45.60
2017-07-15T07:46:31.791Z,45.60
2017-07-15T07:48:57.914Z,45.60
2017-07-15T07:51:24.059Z,45.60
2017-07-15T07:53:50.293Z,45.50
2017-07-15T07:56:16.431Z,45.50
2017-07-15T07:58:42.652Z,45.50
2017-07-15T08:01:08.891Z,45.50
2017-07-15T08:03:35.744Z,45.60
2017-07-15T08:06:02.623Z,45.60
2017-07-15T08:08:28.759Z,45.60
2017-07-15T08:10:54.886Z,45.60
2017-07-15T08:13:21.015Z,45.60
2017-07-15T08:15:47.135Z,45.60
2017-07-15T08:18:13.271Z,45.60
2017-07-15T08:20:39.382Z,45.50
2017-07-15T08:23:05.644Z,45.60
2017-07-15T08:25:31.755Z,45.60
2017-07-15T08:27:57.867Z,45.60
2017-07-15T08:30:24.008Z,45.70
2017-07-15T08:32:50.123Z,45.50
2017-07-15T08:35:16.254Z,45.60
2017-07-15T08:37:42.383Z,45.60
2017-07-15T08:40:08.531Z,45.60
2017-07-15T08:42:34.678Z,46.00
2017-07-15T08:45:01.690Z,45.50
2017-07-15T08:47:27.806Z,45.50
2017-07-15T08:49:53.914Z,45.40
2017-07-15T08:52:20.059Z,45.40
2017-07-15T08:54:46.192Z,45.40
2017-07-15T08:57:12.319Z,45.40
2017-07-15T08:59:38.651Z,45.40
2017-07-15T09:02:04.782Z,45.40
2017-07-15T09:04:30.905Z,45.40
2017-07-15T09:06:57.238Z,45.40
2017-07-15T09:09:23.351Z,45.30
2017-07-15T09:11:49.467Z,45.30
2017-07-15T09:14:15.595Z,45.30
2017-07-15T09:16:41.703Z,45.30
2017-07-15T09:19:08.822Z,45.20
2017-07-15T09:21:34.926Z,45.30
2017-07-15T09:24:01.067Z,45.20
2017-07-15T09:26:27.915Z,45.30
2017-07-15T09:28:54.927Z,45.30
2017-07-15T09:31:21.051Z,45.20
2017-07-15T09:33:47.607Z,45.20
2017-07-15T09:36:14.495Z,45.20
2017-07-15T09:38:40.620Z,45.20
2017-07-15T09:41:06.769Z,45.20
2017-07-15T09:43:32.916Z,45.20
2017-07-15T09:45:59.047Z,45.20
2017-07-15T09:48:25.172Z,45.20
2017-07-15T09:50:51.491Z,45.10
2017-07-15T09:53:17.599Z,45.20
2017-07-15T09:55:43.719Z,45.20
2017-07-15T09:58:09.863Z,45.20
2017-07-15T10:00:36.019Z,45.20
2017-07-15T10:03:02.911Z,45.10
2017-07-15T10:05:29.035Z,45.00
2017-07-15T10:07:55.180Z,45.00
2017-07-15T10:10:21.312Z,44.90
2017-07-15T10:12:47.470Z,44.90
2017-07-15T10:15:14.343Z,45.00
2017-07-15T10:17:40.513Z,44.90
2017-07-15T10:20:06.640Z,44.90
2017-07-15T10:22:32.777Z,44.90
2017-07-15T10:24:58.911Z,44.90
2017-07-15T10:27:25.781Z,44.80
2017-07-15T10:29:51.924Z,44.80
2017-07-15T10:32:18.171Z,44.80
2017-07-15T10:34:44.339Z,44.80
2017-07-15T10:37:11.221Z,44.80
2017-07-15T10:39:37.350Z,44.70
2017-07-15T10:42:03.478Z,44.80
2017-07-15T10:44:29.638Z,44.70
2017-07-15T10:46:56.623Z,44.70
2017-07-15T10:49:22.758Z,44.80
2017-07-15T10:51:49.251Z,44.80
2017-07-15T10:54:15.371Z,44.80
2017-07-15T10:56:41.495Z,44.80
2017-07-15T10:59:07.619Z,44.90
2017-07-15T11:01:33.731Z,44.90
2017-07-15T11:03:59.870Z,44.80
2017-07-15T11:06:25.990Z,44.70
2017-07-15T11:08:52.111Z,44.70
2017-07-15T11:11:18.271Z,44.70
2017-07-15T11:13:44.395Z,44.70
2017-07-15T11:16:11.246Z,45.30
2017-07-15T11:18:38.275Z,44.60
2017-07-15T11:21:04.455Z,44.60
2017-07-15T11:23:30.559Z,44.60
2017-07-15T11:25:56.706Z,44.50
2017-07-15T11:28:23.006Z,44.50
2017-07-15T11:30:49.890Z,44.50
2017-07-15T11:33:16.018Z,44.40
2017-07-15T11:35:42.183Z,44.40
2017-07-15T11:38:08.291Z,44.30
2017-07-15T11:40:34.601Z,44.20
2017-07-15T11:43:00.742Z,44.20
2017-07-15T11:45:26.880Z,44.10
2017-07-15T11:47:53.172Z,44.00
2017-07-15T11:50:19.295Z,43.90
2017-07-15T11:52:45.482Z,44.00
2017-07-15T11:55:12.347Z,43.90
2017-07-15T11:57:38.491Z,43.90
2017-07-15T12:00:04.637Z,43.90
2017-07-15T12:02:30.779Z,43.80
2017-07-15T12:04:56.890Z,43.80
2017-07-15T12:07:23.028Z,43.80
2017-07-15T12:09:49.174Z,43.80
2017-07-15T12:12:15.291Z,43.80
2017-07-15T12:14:41.427Z,43.80
2017-07-15T12:17:07.539Z,43.80
2017-07-15T12:19:33.682Z,43.70
2017-07-15T12:21:59.794Z,43.70
2017-07-15T12:24:26.286Z,43.60
2017-07-15T12:26:52.423Z,43.70
2017-07-15T12:29:18.582Z,43.60
2017-07-15T12:31:44.720Z,43.50
2017-07-15T12:34:11.594Z,43.50
2017-07-15T12:36:37.839Z,43.50
2017-07-15T12:39:05.090Z,43.40
2017-07-15T12:41:31.222Z,43.40
2017-07-15T12:43:57.352Z,43.40
2017-07-15T12:46:23.615Z,43.30
2017-07-15T12:48:49.726Z,43.30
2017-07-15T12:51:15.835Z,43.30
2017-07-15T12:53:41.967Z,43.20
2017-07-15T12:56:08.101Z,43.20
2017-07-15T12:58:34.240Z,43.10
2017-07-15T13:01:00.363Z,43.10
2017-07-15T13:03:26.495Z,43.00
2017-07-15T13:05:52.626Z,43.10
2017-07-15T13:08:18.827Z,43.00
2017-07-15T13:10:44.971Z,43.00
2017-07-15T13:13:11.095Z,43.00
2017-07-15T13:15:37.231Z,43.10
2017-07-15T13:18:03.349Z,43.10
2017-07-15T13:20:29.481Z,43.10
2017-07-15T13:25:28.391Z,43.20
2017-07-15T13:27:54.519Z,43.20
2017-07-15T13:30:20.704Z,43.10
2017-07-15T13:32:46.806Z,43.10
2017-07-15T13:35:12.945Z,43.10
2017-07-15T13:37:39.086Z,43.10
2017-07-15T13:40:05.359Z,43.10
2017-07-15T13:42:31.495Z,43.10
2017-07-15T13:44:58.347Z,43.20
2017-07-15T13:47:24.540Z,43.10
2017-07-15T13:49:50.646Z,43.10
2017-07-15T13:52:16.780Z,43.10
2017-07-15T13:54:42.895Z,43.10
2017-07-15T13:57:09.251Z,43.10
2017-07-15T13:59:35.390Z,43.10
2017-07-15T14:02:01.502Z,43.10
2017-07-15T14:04:27.643Z,43.20
2017-07-15T14:06:54.870Z,43.40
2017-07-15T14:09:21.000Z,43.20
2017-07-15T14:11:47.120Z,43.20
2017-07-15T14:14:13.267Z,43.20
2017-07-15T14:16:39.498Z,43.30
2017-07-15T14:19:05.814Z,43.40
2017-07-15T14:21:31.923Z,43.50
2017-07-15T14:23:58.046Z,43.60
2017-07-15T14:26:24.186Z,43.60
2017-07-15T14:28:50.311Z,44.00
2017-07-15T14:31:16.447Z,44.10
2017-07-15T14:33:42.572Z,44.40
2017-07-15T14:36:08.747Z,44.60
2017-07-15T14:38:34.879Z,44.70
2017-07-15T14:41:01.024Z,44.60
2017-07-15T14:43:27.238Z,44.50
2017-07-15T14:45:53.384Z,44.70
2017-07-15T14:48:19.563Z,44.70
2017-07-15T14:50:46.788Z,44.70
2017-07-15T14:53:12.923Z,44.70
2017-07-15T14:55:39.051Z,44.90
2017-07-15T14:58:05.939Z,45.50
2017-07-15T15:00:32.047Z,44.90
2017-07-15T15:02:58.203Z,44.70
2017-07-15T15:05:24.323Z,44.80
2017-07-15T15:07:50.464Z,44.90
2017-07-15T15:10:16.579Z,45.00
2017-07-15T15:12:42.730Z,45.00
2017-07-15T15:15:08.862Z,45.00
2017-07-15T15:17:35.191Z,44.90
2017-07-15T15:20:01.318Z,44.90
2017-07-15T15:22:27.427Z,44.90
2017-07-15T15:24:53.564Z,44.90
2017-07-15T15:27:19.734Z,44.70
2017-07-15T15:29:45.892Z,44.90
2017-07-15T15:32:12.079Z,44.70
2017-07-15T15:34:38.214Z,44.80
2017-07-15T15:37:04.599Z,44.70
2017-07-15T15:39:30.710Z,44.70
2017-07-15T15:41:56.847Z,44.60
2017-07-15T15:44:22.983Z,44.50
2017-07-15T15:46:49.121Z,44.50
2017-07-15T15:49:15.250Z,44.60
2017-07-15T15:51:41.405Z,44.60
2017-07-15T15:54:07.519Z,44.50
2017-07-15T15:56:33.803Z,44.50
2017-07-15T15:58:59.915Z,44.50
2017-07-15T16:01:26.019Z,44.40
2017-07-15T16:03:52.154Z,44.50
2017-07-15T16:06:18.270Z,44.50
2017-07-15T16:08:44.471Z,44.40
2017-07-15T16:11:10.582Z,44.40
2017-07-15T16:13:36.850Z,44.50
2017-07-15T16:16:02.992Z,44.50
2017-07-15T16:18:29.108Z,44.50
2017-07-15T16:20:55.268Z,44.70
2017-07-15T16:23:21.387Z,44.60
2017-07-15T16:25:47.513Z,44.60
2017-07-15T16:28:13.631Z,44.70
2017-07-15T16:30:39.779Z,44.80
2017-07-15T16:33:05.952Z,44.90
2017-07-15T16:35:32.226Z,44.90
2017-07-15T16:37:58.330Z,44.90
2017-07-15T16:40:24.479Z,45.00
2017-07-15T16:42:50.654Z,45.00
2017-07-15T16:45:16.767Z,45.00
2017-07-15T16:47:42.927Z,45.00
2017-07-15T16:50:09.034Z,45.00
2017-07-15T16:52:35.202Z,45.00
2017-07-15T16:55:01.327Z,45.00
2017-07-15T16:57:27.462Z,45.00
2017-07-15T16:59:53.568Z,45.00
2017-07-15T17:02:19.847Z,45.00
2017-07-15T17:04:45.980Z,44.90
2017-07-15T17:07:12.099Z,44.90
2017-07-15T17:09:38.228Z,44.80
2017-07-15T17:12:04.365Z,44.90
2017-07-15T17:14:30.491Z,44.90
2017-07-15T17:16:56.604Z,45.00
2017-07-15T17:19:22.740Z,45.00
2017-07-15T17:21:48.856Z,45.00
2017-07-15T17:24:15.327Z,45.00
2017-07-15T17:26:41.436Z,44.90
2017-07-15T17:29:07.555Z,44.90
2017-07-15T17:31:33.698Z,45.00
2017-07-15T17:33:59.818Z,45.00
2017-07-15T17:36:25.956Z,45.00
2017-07-15T17:38:52.071Z,44.90
2017-07-15T17:41:18.190Z,44.90
2017-07-15T17:43:44.330Z,44.80
2017-07-15T17:46:10.579Z,44.90
2017-07-15T17:48:36.710Z,44.90
2017-07-15T17:51:02.852Z,44.90
2017-07-15T17:53:28.977Z,44.90
2017-07-15T17:55:55.089Z,45.00
2017-07-15T17:58:21.219Z,45.00
2017-07-15T18:00:48.121Z,45.00
2017-07-15T18:03:14.263Z,45.00
2017-07-15T18:05:40.388Z,45.10
2017-07-15T18:08:07.107Z,45.10
2017-07-15T18:10:33.219Z,45.20
2017-07-15T18:13:14.304Z,45.30
2017-07-15T18:15:40.443Z,45.40
2017-07-15T18:18:06.684Z,45.40
2017-07-15T18:20:32.811Z,45.40
2017-07-15T18:22:58.922Z,45.30
2017-07-15T18:25:25.064Z,45.30
2017-07-15T18:27:51.174Z,45.30
2017-07-15T18:30:17.308Z,45.40
2017-07-15T18:32:43.416Z,45.60
2017-07-15T18:35:09.542Z,45.70
2017-07-15T18:37:35.650Z,45.70
2017-07-15T18:40:01.888Z,45.70
2017-07-15T18:42:27.991Z,45.80
2017-07-15T18:44:54.137Z,45.90
2017-07-15T18:47:20.267Z,45.90
2017-07-15T18:49:46.370Z,45.90
2017-07-15T18:52:12.523Z,46.00
2017-07-15T18:54:38.635Z,46.00
2017-07-15T18:57:05.163Z,46.00
2017-07-15T18:59:31.266Z,46.00
2017-07-15T19:01:57.403Z,46.00
2017-07-15T19:04:23.540Z,46.00
2017-07-15T19:06:49.703Z,46.10
2017-07-15T19:09:16.015Z,46.00
2017-07-15T19:11:42.196Z,46.10
2017-07-15T19:14:08.355Z,45.90
2017-07-15T19:16:34.473Z,45.90
2017-07-15T19:19:00.626Z,45.90
2017-07-15T19:21:26.735Z,46.40
2017-07-15T19:23:52.859Z,45.80
2017-07-15T19:26:18.983Z,45.80
2017-07-15T19:28:45.271Z,45.90
2017-07-15T19:31:11.388Z,45.90
2017-07-15T19:33:37.503Z,45.90
2017-07-15T19:36:03.654Z,45.90
2017-07-15T19:38:29.792Z,45.90
2017-07-15T19:40:55.940Z,46.00
2017-07-15T19:43:22.159Z,46.00
2017-07-15T19:45:48.290Z,46.10
2017-07-15T19:48:14.442Z,46.00
2017-07-15T19:50:40.614Z,46.10
2017-07-15T19:53:06.738Z,46.10
2017-07-15T19:55:32.971Z,46.10
2017-07-15T19:57:59.099Z,46.10
2017-07-15T20:00:25.231Z,46.10
2017-07-15T20:02:51.383Z,46.20
2017-07-15T20:05:17.501Z,46.20
2017-07-15T20:07:43.707Z,46.10
2017-07-15T20:10:09.828Z,46.20
2017-07-15T20:12:35.950Z,46.20
2017-07-15T20:15:02.117Z,46.20
2017-07-15T20:17:28.235Z,46.30
2017-07-15T20:19:54.370Z,46.30
2017-07-15T20:22:20.522Z,46.30
2017-07-15T20:24:46.823Z,46.30
2017-07-15T20:27:13.351Z,46.40
2017-07-15T20:29:39.462Z,46.40
2017-07-15T20:32:05.576Z,46.30
2017-07-15T20:34:31.711Z,46.30
2017-07-15T20:37:17.754Z,46.30
2017-07-15T20:39:43.947Z,46.40
2017-07-15T20:42:10.083Z,46.40
2017-07-15T20:44:36.246Z,47.00
2017-07-15T20:47:02.378Z,46.40
2017-07-15T20:49:28.543Z,46.40
2017-07-15T20:52:12.487Z,46.40
2017-07-15T20:54:38.651Z,46.40
2017-07-15T20:57:04.778Z,46.40
2017-07-15T20:59:30.930Z,46.50
2017-07-15T21:01:57.055Z,46.50
2017-07-15T21:04:23.319Z,46.50
2017-07-15T21:06:49.427Z,46.50
2017-07-15T21:09:15.538Z,46.50
2017-07-15T21:11:41.667Z,46.50
2017-07-15T21:14:07.784Z,46.60
2017-07-15T21:16:33.910Z,46.60
2017-07-15T21:19:00.020Z,46.70
2017-07-15T21:21:26.170Z,46.60
2017-07-15T21:23:52.292Z,46.60
2017-07-15T21:26:18.415Z,46.60
2017-07-15T21:28:44.559Z,46.60
2017-07-15T21:31:10.678Z,46.60
2017-07-15T21:33:36.816Z,46.60
2017-07-15T21:36:02.962Z,46.60
2017-07-15T21:38:29.111Z,46.60
2017-07-15T21:40:55.223Z,46.60
2017-07-15T21:43:21.351Z,46.60
2017-07-15T21:45:47.477Z,46.60
2017-07-15T21:48:13.616Z,46.70
2017-07-15T21:50:39.751Z,46.70
2017-07-15T21:53:05.876Z,46.60
2017-07-15T21:55:32.007Z,46.60
2017-07-15T21:57:58.127Z,46.60
2017-07-15T22:00:24.299Z,46.60
2017-07-15T22:02:50.410Z,46.60
2017-07-15T22:05:16.716Z,46.60
2017-07-15T22:07:42.832Z,46.60
2017-07-15T22:10:08.989Z,46.50
2017-07-15T22:12:35.138Z,46.50
2017-07-15T22:15:01.254Z,46.50
2017-07-15T22:17:27.379Z,46.50
2017-07-15T22:19:53.495Z,46.50
2017-07-15T22:22:19.647Z,46.50
2017-07-15T22:24:45.787Z,46.50
2017-07-15T22:27:11.968Z,46.50
2017-07-15T22:29:38.079Z,46.50
2017-07-15T22:32:04.235Z,46.50
2017-07-15T22:34:30.380Z,46.50
2017-07-15T22:36:56.483Z,46.50
2017-07-15T22:39:22.627Z,46.50
2017-07-15T22:41:48.761Z,46.50
2017-07-15T22:44:14.883Z,46.40
2017-07-15T22:46:40.999Z,46.50
2017-07-15T22:49:07.155Z,46.40
2017-07-15T22:51:33.266Z,46.40
2017-07-15T22:53:59.383Z,46.40
2017-07-15T22:56:25.494Z,46.40
2017-07-15T22:58:51.636Z,46.40
2017-07-15T23:01:17.759Z,46.40
2017-07-15T23:03:43.905Z,46.30
2017-07-15T23:06:10.097Z,46.40
2017-07-15T23:08:36.292Z,46.40
2017-07-15T23:11:02.431Z,46.40
2017-07-15T23:13:29.140Z,46.30
2017-07-15T23:15:55.273Z,46.30
2017-07-15T23:18:21.419Z,46.30
2017-07-15T23:20:47.575Z,46.30
2017-07-15T23:23:13.681Z,46.40
2017-07-15T23:25:39.811Z,46.30
2017-07-15T23:28:05.933Z,46.30
2017-07-15T23:30:32.089Z,46.40
2017-07-15T23:32:58.227Z,46.40
2017-07-15T23:35:24.351Z,46.30
2017-07-15T23:37:50.452Z,46.30
2017-07-15T23:40:16.580Z,46.30
2017-07-15T23:42:42.695Z,46.30
2017-07-15T23:45:08.850Z,46.30
2017-07-15T23:47:35.774Z,46.20
2017-07-15T23:50:01.906Z,46.20
2017-07-15T23:52:28.039Z,46.30
2017-07-15T23:54:54.176Z,46.30
2017-07-15T23:57:20.279Z,46.30
2017-07-15T23:59:46.431Z,46.30
